sensor_id;sensor_type;location;lat;lon;timestamp;temperature;humidity
318;DHT22;146;53.448;10.228;2022-09-03T00:00:02;16.00;1.00
318;DHT22;146;53.448;10.228;2022-09-03T00:02:35;16.00;1.00
318;DHT22;146;53.448;10.228;2022-09-03T00:05:07;16.00;1.00
318;DHT22;146;53.448;10.228;2022-09-03T00:07:41;15.90;1.00
318;DHT22;146;53.448;10.228;2022-09-03T00:10:17;15.90;1.00
318;DHT22;146;53.448;10.228;2022-09-03T00:12:49;15.80;1.00
318;DHT22;146;53.448;10.228;2022-09-03T00:15:19;15.80;1.00
318;DHT22;146;53.448;10.228;2022-09-03T00:17:49;15.80;1.00
318;DHT22;146;53.448;10.228;2022-09-03T00:20:20;15.80;1.00
318;DHT22;146;53.448;10.228;2022-09-03T00:22:49;15.80;1.00
318;DHT22;146;53.448;10.228;2022-09-03T00:25:21;15.80;1.00
318;DHT22;146;53.448;10.228;2022-09-03T00:27:52;15.80;1.00
318;DHT22;146;53.448;10.228;2022-09-03T00:30:21;15.70;1.00
318;DHT22;146;53.448;10.228;2022-09-03T00:32:51;15.70;1.00
318;DHT22;146;53.448;10.228;2022-09-03T00:35:24;15.70;1.00
318;DHT22;146;53.448;10.228;2022-09-03T00:37:53;15.60;1.00
318;DHT22;146;53.448;10.228;2022-09-03T00:40:34;15.60;1.00
318;DHT22;146;53.448;10.228;2022-09-03T00:43:08;15.60;1.00
318;DHT22;146;53.448;10.228;2022-09-03T00:45:45;15.60;1.00
318;DHT22;146;53.448;10.228;2022-09-03T00:48:20;15.50;1.00
318;DHT22;146;53.448;10.228;2022-09-03T00:51:00;15.50;1.00
318;DHT22;146;53.448;10.228;2022-09-03T00:53:35;15.50;1.00
318;DHT22;146;53.448;10.228;2022-09-03T00:56:13;15.60;1.00
318;DHT22;146;53.448;10.228;2022-09-03T00:58:54;15.60;1.00
318;DHT22;146;53.448;10.228;2022-09-03T01:01:30;15.60;1.00
318;DHT22;146;53.448;10.228;2022-09-03T01:04:11;15.60;1.00
318;DHT22;146;53.448;10.228;2022-09-03T01:06:48;15.60;1.00
318;DHT22;146;53.448;10.228;2022-09-03T01:09:30;15.60;1.00
318;DHT22;146;53.448;10.228;2022-09-03T01:12:07;15.60;1.00
318;DHT22;146;53.448;10.228;2022-09-03T01:14:46;15.70;1.00
318;DHT22;146;53.448;10.228;2022-09-03T01:17:24;15.60;1.00
318;DHT22;146;53.448;10.228;2022-09-03T01:20:08;15.70;1.00
318;DHT22;146;53.448;10.228;2022-09-03T01:25:53;15.80;1.00
318;DHT22;146;53.448;10.228;2022-09-03T01:28:41;15.80;1.00
318;DHT22;146;53.448;10.228;2022-09-03T01:31:20;15.80;1.00
318;DHT22;146;53.448;10.228;2022-09-03T01:33:57;15.80;1.00
318;DHT22;146;53.448;10.228;2022-09-03T01:36:32;15.80;1.00
318;DHT22;146;53.448;10.228;2022-09-03T01:39:02;15.80;1.00
318;DHT22;146;53.448;10.228;2022-09-03T01:41:36;15.90;1.00
318;DHT22;146;53.448;10.228;2022-09-03T01:44:31;15.90;1.00
318;DHT22;146;53.448;10.228;2022-09-03T01:47:13;15.90;1.00
318;DHT22;146;53.448;10.228;2022-09-03T01:49:46;16.00;1.00
318;DHT22;146;53.448;10.228;2022-09-03T01:52:18;16.00;1.00
318;DHT22;146;53.448;10.228;2022-09-03T01:55:01;16.10;1.00
318;DHT22;146;53.448;10.228;2022-09-03T01:57:39;16.00;1.00
318;DHT22;146;53.448;10.228;2022-09-03T02:00:12;16.00;1.00
318;DHT22;146;53.448;10.228;2022-09-03T02:02:40;16.00;1.00
318;DHT22;146;53.448;10.228;2022-09-03T02:05:11;16.00;1.00
318;DHT22;146;53.448;10.228;2022-09-03T02:07:41;15.80;1.00
318;DHT22;146;53.448;10.228;2022-09-03T02:10:12;15.80;1.00
318;DHT22;146;53.448;10.228;2022-09-03T02:12:43;15.80;1.00
318;DHT22;146;53.448;10.228;2022-09-03T02:15:15;15.80;1.00
318;DHT22;146;53.448;10.228;2022-09-03T02:17:44;15.80;1.00
318;DHT22;146;53.448;10.228;2022-09-03T02:20:16;15.80;1.00
318;DHT22;146;53.448;10.228;2022-09-03T02:22:45;15.70;1.00
318;DHT22;146;53.448;10.228;2022-09-03T02:25:13;15.70;1.00
318;DHT22;146;53.448;10.228;2022-09-03T02:27:40;15.70;1.00
318;DHT22;146;53.448;10.228;2022-09-03T02:30:08;15.70;1.00
318;DHT22;146;53.448;10.228;2022-09-03T02:32:36;15.60;1.00
318;DHT22;146;53.448;10.228;2022-09-03T02:35:03;15.50;1.00
318;DHT22;146;53.448;10.228;2022-09-03T02:37:31;15.60;1.00
318;DHT22;146;53.448;10.228;2022-09-03T02:39:58;15.50;1.00
318;DHT22;146;53.448;10.228;2022-09-03T02:42:24;15.40;1.00
318;DHT22;146;53.448;10.228;2022-09-03T02:44:53;15.40;1.00
318;DHT22;146;53.448;10.228;2022-09-03T02:47:22;15.30;1.00
318;DHT22;146;53.448;10.228;2022-09-03T02:49:52;15.20;1.00
318;DHT22;146;53.448;10.228;2022-09-03T02:52:19;15.20;1.00
318;DHT22;146;53.448;10.228;2022-09-03T02:54:47;15.10;1.00
318;DHT22;146;53.448;10.228;2022-09-03T02:57:16;15.20;1.00
318;DHT22;146;53.448;10.228;2022-09-03T02:59:43;15.10;1.00
318;DHT22;146;53.448;10.228;2022-09-03T03:02:11;15.00;1.00
318;DHT22;146;53.448;10.228;2022-09-03T03:04:38;15.00;1.00
318;DHT22;146;53.448;10.228;2022-09-03T03:07:07;14.90;1.00
318;DHT22;146;53.448;10.228;2022-09-03T03:09:33;14.90;1.00
318;DHT22;146;53.448;10.228;2022-09-03T03:12:00;14.90;1.00
318;DHT22;146;53.448;10.228;2022-09-03T03:14:27;14.80;1.00
318;DHT22;146;53.448;10.228;2022-09-03T03:16:54;14.80;1.00
318;DHT22;146;53.448;10.228;2022-09-03T03:19:21;14.70;1.00
318;DHT22;146;53.448;10.228;2022-09-03T03:21:47;14.70;1.00
318;DHT22;146;53.448;10.228;2022-09-03T03:24:16;14.70;1.00
318;DHT22;146;53.448;10.228;2022-09-03T03:26:43;14.60;1.00
318;DHT22;146;53.448;10.228;2022-09-03T03:29:14;14.60;1.00
318;DHT22;146;53.448;10.228;2022-09-03T03:31:42;14.60;1.00
318;DHT22;146;53.448;10.228;2022-09-03T03:34:09;14.60;1.00
318;DHT22;146;53.448;10.228;2022-09-03T03:36:36;14.50;1.00
318;DHT22;146;53.448;10.228;2022-09-03T03:39:03;14.40;1.00
318;DHT22;146;53.448;10.228;2022-09-03T03:41:32;14.40;1.00
318;DHT22;146;53.448;10.228;2022-09-03T03:44:01;14.40;1.00
318;DHT22;146;53.448;10.228;2022-09-03T03:46:32;14.40;1.00
318;DHT22;146;53.448;10.228;2022-09-03T03:48:59;14.50;1.00
318;DHT22;146;53.448;10.228;2022-09-03T03:51:27;14.50;1.00
318;DHT22;146;53.448;10.228;2022-09-03T03:53:56;14.60;1.00
318;DHT22;146;53.448;10.228;2022-09-03T03:56:24;14.50;1.00
318;DHT22;146;53.448;10.228;2022-09-03T03:58:53;14.50;1.00
318;DHT22;146;53.448;10.228;2022-09-03T04:01:21;14.60;1.00
318;DHT22;146;53.448;10.228;2022-09-03T04:03:48;14.50;1.00
318;DHT22;146;53.448;10.228;2022-09-03T04:06:18;14.50;1.00
318;DHT22;146;53.448;10.228;2022-09-03T04:08:46;14.50;1.00
318;DHT22;146;53.448;10.228;2022-09-03T04:11:15;14.40;1.00
318;DHT22;146;53.448;10.228;2022-09-03T04:13:43;14.30;1.00
318;DHT22;146;53.448;10.228;2022-09-03T04:16:13;14.30;1.00
318;DHT22;146;53.448;10.228;2022-09-03T04:18:41;14.30;1.00
318;DHT22;146;53.448;10.228;2022-09-03T04:21:09;14.20;1.00
318;DHT22;146;53.448;10.228;2022-09-03T04:23:39;14.20;1.00
318;DHT22;146;53.448;10.228;2022-09-03T04:26:07;14.20;1.00
318;DHT22;146;53.448;10.228;2022-09-03T04:28:35;14.20;1.00
318;DHT22;146;53.448;10.228;2022-09-03T04:31:03;14.20;1.00
318;DHT22;146;53.448;10.228;2022-09-03T04:33:32;14.10;1.00
318;DHT22;146;53.448;10.228;2022-09-03T04:36:04;14.10;1.00
318;DHT22;146;53.448;10.228;2022-09-03T04:38:31;14.10;1.00
318;DHT22;146;53.448;10.228;2022-09-03T04:40:58;14.10;1.00
318;DHT22;146;53.448;10.228;2022-09-03T04:43:26;14.00;1.00
318;DHT22;146;53.448;10.228;2022-09-03T04:45:56;14.10;1.00
318;DHT22;146;53.448;10.228;2022-09-03T04:48:23;14.00;1.00
318;DHT22;146;53.448;10.228;2022-09-03T04:50:52;14.00;1.00
318;DHT22;146;53.448;10.228;2022-09-03T04:53:20;14.00;1.00
318;DHT22;146;53.448;10.228;2022-09-03T04:55:46;14.00;1.00
318;DHT22;146;53.448;10.228;2022-09-03T04:58:13;14.00;1.00
318;DHT22;146;53.448;10.228;2022-09-03T05:00:40;14.00;1.00
318;DHT22;146;53.448;10.228;2022-09-03T05:03:07;14.00;1.00
318;DHT22;146;53.448;10.228;2022-09-03T05:05:34;14.00;1.00
318;DHT22;146;53.448;10.228;2022-09-03T05:08:02;14.00;1.00
318;DHT22;146;53.448;10.228;2022-09-03T05:10:30;14.00;1.00
318;DHT22;146;53.448;10.228;2022-09-03T05:12:58;14.10;1.00
318;DHT22;146;53.448;10.228;2022-09-03T05:15:25;14.00;1.00
318;DHT22;146;53.448;10.228;2022-09-03T05:17:55;14.00;1.00
318;DHT22;146;53.448;10.228;2022-09-03T05:20:22;14.00;1.00
318;DHT22;146;53.448;10.228;2022-09-03T05:22:49;14.00;1.00
318;DHT22;146;53.448;10.228;2022-09-03T05:25:17;14.00;1.00
318;DHT22;146;53.448;10.228;2022-09-03T05:27:44;13.90;1.00
318;DHT22;146;53.448;10.228;2022-09-03T05:30:11;13.90;1.00
318;DHT22;146;53.448;10.228;2022-09-03T05:32:38;13.90;1.00
318;DHT22;146;53.448;10.228;2022-09-03T05:35:07;14.00;1.00
318;DHT22;146;53.448;10.228;2022-09-03T05:37:35;14.00;1.00
318;DHT22;146;53.448;10.228;2022-09-03T05:40:03;13.90;1.00
318;DHT22;146;53.448;10.228;2022-09-03T05:42:31;14.00;1.00
318;DHT22;146;53.448;10.228;2022-09-03T05:44:59;14.00;1.00
318;DHT22;146;53.448;10.228;2022-09-03T05:47:26;14.00;1.00
318;DHT22;146;53.448;10.228;2022-09-03T05:49:53;14.00;1.00
318;DHT22;146;53.448;10.228;2022-09-03T05:52:19;14.10;1.00
318;DHT22;146;53.448;10.228;2022-09-03T05:54:47;14.10;1.00
318;DHT22;146;53.448;10.228;2022-09-03T05:57:14;14.10;1.00
318;DHT22;146;53.448;10.228;2022-09-03T05:59:42;14.10;1.00
318;DHT22;146;53.448;10.228;2022-09-03T06:02:09;14.20;1.00
318;DHT22;146;53.448;10.228;2022-09-03T06:04:36;14.20;1.00
318;DHT22;146;53.448;10.228;2022-09-03T06:07:03;14.20;1.00
318;DHT22;146;53.448;10.228;2022-09-03T06:09:29;14.20;1.00
318;DHT22;146;53.448;10.228;2022-09-03T06:11:56;14.30;1.00
318;DHT22;146;53.448;10.228;2022-09-03T06:14:23;14.30;1.00
318;DHT22;146;53.448;10.228;2022-09-03T06:16:51;14.30;1.00
318;DHT22;146;53.448;10.228;2022-09-03T06:19:20;14.40;1.00
318;DHT22;146;53.448;10.228;2022-09-03T06:21:46;14.30;1.00
318;DHT22;146;53.448;10.228;2022-09-03T06:24:15;14.40;1.00
318;DHT22;146;53.448;10.228;2022-09-03T06:26:42;14.40;1.00
318;DHT22;146;53.448;10.228;2022-09-03T06:29:10;14.50;1.00
318;DHT22;146;53.448;10.228;2022-09-03T06:31:37;14.60;1.00
318;DHT22;146;53.448;10.228;2022-09-03T06:34:05;14.60;1.00
318;DHT22;146;53.448;10.228;2022-09-03T06:36:33;14.70;1.00
318;DHT22;146;53.448;10.228;2022-09-03T06:39:00;14.70;1.00
318;DHT22;146;53.448;10.228;2022-09-03T06:41:28;14.70;1.00
318;DHT22;146;53.448;10.228;2022-09-03T06:43:59;14.70;1.00
318;DHT22;146;53.448;10.228;2022-09-03T06:46:27;14.70;1.00
318;DHT22;146;53.448;10.228;2022-09-03T06:48:55;14.90;1.00
318;DHT22;146;53.448;10.228;2022-09-03T06:51:25;14.90;1.00
318;DHT22;146;53.448;10.228;2022-09-03T06:53:53;14.90;1.00
318;DHT22;146;53.448;10.228;2022-09-03T06:56:23;15.00;1.00
318;DHT22;146;53.448;10.228;2022-09-03T06:58:52;15.00;1.00
318;DHT22;146;53.448;10.228;2022-09-03T07:01:21;15.10;1.00
318;DHT22;146;53.448;10.228;2022-09-03T07:03:52;15.20;1.00
318;DHT22;146;53.448;10.228;2022-09-03T07:06:23;15.30;1.00
318;DHT22;146;53.448;10.228;2022-09-03T07:08:52;15.30;1.00
318;DHT22;146;53.448;10.228;2022-09-03T07:11:21;15.40;1.00
318;DHT22;146;53.448;10.228;2022-09-03T07:13:49;15.40;1.00
318;DHT22;146;53.448;10.228;2022-09-03T07:16:19;15.50;1.00
318;DHT22;146;53.448;10.228;2022-09-03T07:18:47;15.50;1.00
318;DHT22;146;53.448;10.228;2022-09-03T07:21:16;15.60;1.00
318;DHT22;146;53.448;10.228;2022-09-03T07:23:45;15.70;1.00
318;DHT22;146;53.448;10.228;2022-09-03T07:26:13;15.80;1.00
318;DHT22;146;53.448;10.228;2022-09-03T07:28:42;15.90;1.00
318;DHT22;146;53.448;10.228;2022-09-03T07:31:12;15.90;1.00
318;DHT22;146;53.448;10.228;2022-09-03T07:33:39;16.00;1.00
318;DHT22;146;53.448;10.228;2022-09-03T07:36:08;16.10;1.00
318;DHT22;146;53.448;10.228;2022-09-03T07:38:36;16.20;1.00
318;DHT22;146;53.448;10.228;2022-09-03T07:41:05;16.20;1.00
318;DHT22;146;53.448;10.228;2022-09-03T07:43:34;16.20;1.00
318;DHT22;146;53.448;10.228;2022-09-03T07:46:04;16.20;1.00
318;DHT22;146;53.448;10.228;2022-09-03T07:48:31;16.30;1.00
318;DHT22;146;53.448;10.228;2022-09-03T07:50:58;16.40;1.00
318;DHT22;146;53.448;10.228;2022-09-03T07:53:26;16.40;1.00
318;DHT22;146;53.448;10.228;2022-09-03T07:55:54;16.40;1.00
318;DHT22;146;53.448;10.228;2022-09-03T07:58:22;16.50;1.00
318;DHT22;146;53.448;10.228;2022-09-03T08:00:49;16.40;1.00
318;DHT22;146;53.448;10.228;2022-09-03T08:03:16;16.50;1.00
318;DHT22;146;53.448;10.228;2022-09-03T08:05:43;16.50;1.00
318;DHT22;146;53.448;10.228;2022-09-03T08:08:10;16.60;1.00
318;DHT22;146;53.448;10.228;2022-09-03T08:10:38;16.60;1.00
318;DHT22;146;53.448;10.228;2022-09-03T08:13:08;16.70;1.00
318;DHT22;146;53.448;10.228;2022-09-03T08:15:36;16.80;1.00
318;DHT22;146;53.448;10.228;2022-09-03T08:18:05;16.90;1.00
318;DHT22;146;53.448;10.228;2022-09-03T08:20:31;17.10;1.00
318;DHT22;146;53.448;10.228;2022-09-03T08:23:01;17.20;1.00
318;DHT22;146;53.448;10.228;2022-09-03T08:25:28;17.30;1.00
318;DHT22;146;53.448;10.228;2022-09-03T08:27:57;17.40;1.00
318;DHT22;146;53.448;10.228;2022-09-03T08:30:24;17.40;1.00
318;DHT22;146;53.448;10.228;2022-09-03T08:32:53;17.50;1.00
318;DHT22;146;53.448;10.228;2022-09-03T08:35:20;17.50;1.00
318;DHT22;146;53.448;10.228;2022-09-03T08:37:47;17.50;1.00
318;DHT22;146;53.448;10.228;2022-09-03T08:40:16;17.50;1.00
318;DHT22;146;53.448;10.228;2022-09-03T08:42:49;17.60;1.00
318;DHT22;146;53.448;10.228;2022-09-03T08:45:20;17.70;1.00
318;DHT22;146;53.448;10.228;2022-09-03T08:47:48;17.70;1.00
318;DHT22;146;53.448;10.228;2022-09-03T08:50:22;17.80;1.00
318;DHT22;146;53.448;10.228;2022-09-03T08:52:52;17.80;1.00
318;DHT22;146;53.448;10.228;2022-09-03T08:55:25;17.90;1.00
318;DHT22;146;53.448;10.228;2022-09-03T08:57:59;18.00;1.00
318;DHT22;146;53.448;10.228;2022-09-03T09:00:36;18.10;1.00
318;DHT22;146;53.448;10.228;2022-09-03T09:03:17;18.10;1.00
318;DHT22;146;53.448;10.228;2022-09-03T09:06:02;18.20;1.00
318;DHT22;146;53.448;10.228;2022-09-03T09:08:36;18.30;1.00
318;DHT22;146;53.448;10.228;2022-09-03T09:11:10;18.30;1.00
318;DHT22;146;53.448;10.228;2022-09-03T09:13:47;18.40;1.00
318;DHT22;146;53.448;10.228;2022-09-03T09:16:19;18.50;1.00
318;DHT22;146;53.448;10.228;2022-09-03T09:18:56;18.60;1.00
318;DHT22;146;53.448;10.228;2022-09-03T09:21:28;18.60;1.00
318;DHT22;146;53.448;10.228;2022-09-03T09:24:00;18.60;1.00
318;DHT22;146;53.448;10.228;2022-09-03T09:26:28;18.70;1.00
318;DHT22;146;53.448;10.228;2022-09-03T09:28:57;18.70;1.00
318;DHT22;146;53.448;10.228;2022-09-03T09:31:26;18.70;1.00
318;DHT22;146;53.448;10.228;2022-09-03T09:33:58;18.70;1.00
318;DHT22;146;53.448;10.228;2022-09-03T09:36:27;18.80;1.00
318;DHT22;146;53.448;10.228;2022-09-03T09:38:54;18.90;1.00
318;DHT22;146;53.448;10.228;2022-09-03T09:41:21;19.00;1.00
318;DHT22;146;53.448;10.228;2022-09-03T09:43:59;19.10;1.00
318;DHT22;146;53.448;10.228;2022-09-03T09:46:34;19.20;1.00
318;DHT22;146;53.448;10.228;2022-09-03T09:49:02;19.30;1.00
318;DHT22;146;53.448;10.228;2022-09-03T09:55:13;19.40;1.00
318;DHT22;146;53.448;10.228;2022-09-03T09:57:52;19.60;1.00
318;DHT22;146;53.448;10.228;2022-09-03T10:00:19;19.60;1.00
318;DHT22;146;53.448;10.228;2022-09-03T10:02:47;19.80;1.00
318;DHT22;146;53.448;10.228;2022-09-03T10:05:21;19.90;1.00
318;DHT22;146;53.448;10.228;2022-09-03T10:07:56;19.90;1.00
318;DHT22;146;53.448;10.228;2022-09-03T10:10:26;20.00;1.00
318;DHT22;146;53.448;10.228;2022-09-03T10:12:58;20.00;1.00
318;DHT22;146;53.448;10.228;2022-09-03T10:15:31;20.10;1.00
318;DHT22;146;53.448;10.228;2022-09-03T10:18:05;20.10;1.00
318;DHT22;146;53.448;10.228;2022-09-03T10:20:39;20.20;1.00
318;DHT22;146;53.448;10.228;2022-09-03T10:23:14;20.20;1.00
318;DHT22;146;53.448;10.228;2022-09-03T10:25:56;20.20;1.00
318;DHT22;146;53.448;10.228;2022-09-03T10:28:29;20.20;1.00
318;DHT22;146;53.448;10.228;2022-09-03T10:31:17;20.30;1.00
318;DHT22;146;53.448;10.228;2022-09-03T10:33:48;20.30;1.00
318;DHT22;146;53.448;10.228;2022-09-03T10:36:23;20.30;1.00
318;DHT22;146;53.448;10.228;2022-09-03T10:38:54;20.30;1.00
318;DHT22;146;53.448;10.228;2022-09-03T10:41:35;20.40;1.00
318;DHT22;146;53.448;10.228;2022-09-03T10:47:13;20.50;1.00
318;DHT22;146;53.448;10.228;2022-09-03T10:49:50;20.60;1.00
318;DHT22;146;53.448;10.228;2022-09-03T10:52:26;20.70;1.00
318;DHT22;146;53.448;10.228;2022-09-03T10:55:13;20.70;1.00
318;DHT22;146;53.448;10.228;2022-09-03T10:57:50;20.80;1.00
318;DHT22;146;53.448;10.228;2022-09-03T11:00:19;20.80;1.00
318;DHT22;146;53.448;10.228;2022-09-03T11:03:24;20.80;1.00
318;DHT22;146;53.448;10.228;2022-09-03T11:06:00;20.90;1.00
318;DHT22;146;53.448;10.228;2022-09-03T11:08:33;20.90;1.00
318;DHT22;146;53.448;10.228;2022-09-03T11:11:10;20.90;1.00
318;DHT22;146;53.448;10.228;2022-09-03T11:13:43;20.90;1.00
318;DHT22;146;53.448;10.228;2022-09-03T11:16:14;21.00;1.00
318;DHT22;146;53.448;10.228;2022-09-03T11:18:48;21.00;1.00
318;DHT22;146;53.448;10.228;2022-09-03T11:21:18;21.00;1.00
318;DHT22;146;53.448;10.228;2022-09-03T11:23:49;21.10;1.00
318;DHT22;146;53.448;10.228;2022-09-03T11:26:18;21.10;1.00
318;DHT22;146;53.448;10.228;2022-09-03T11:29:17;21.20;1.00
318;DHT22;146;53.448;10.228;2022-09-03T11:31:53;21.30;1.00
318;DHT22;146;53.448;10.228;2022-09-03T11:34:29;21.30;1.00
318;DHT22;146;53.448;10.228;2022-09-03T11:37:14;21.40;1.00
318;DHT22;146;53.448;10.228;2022-09-03T11:39:43;21.50;1.00
318;DHT22;146;53.448;10.228;2022-09-03T11:42:12;21.60;1.00
318;DHT22;146;53.448;10.228;2022-09-03T11:44:50;21.70;1.00
318;DHT22;146;53.448;10.228;2022-09-03T11:47:21;21.80;1.00
318;DHT22;146;53.448;10.228;2022-09-03T11:49:49;21.90;1.00
318;DHT22;146;53.448;10.228;2022-09-03T11:52:26;22.00;1.00
318;DHT22;146;53.448;10.228;2022-09-03T11:54:53;22.10;1.00
318;DHT22;146;53.448;10.228;2022-09-03T11:57:26;22.20;1.00
318;DHT22;146;53.448;10.228;2022-09-03T12:00:06;22.30;1.00
318;DHT22;146;53.448;10.228;2022-09-03T12:09:24;22.40;1.00
318;DHT22;146;53.448;10.228;2022-09-03T12:12:02;22.10;1.00
318;DHT22;146;53.448;10.228;2022-09-03T12:14:36;21.90;1.00
318;DHT22;146;53.448;10.228;2022-09-03T12:17:21;21.90;1.00
318;DHT22;146;53.448;10.228;2022-09-03T12:19:51;21.90;1.00
318;DHT22;146;53.448;10.228;2022-09-03T12:22:21;21.90;1.00
318;DHT22;146;53.448;10.228;2022-09-03T12:24:48;21.80;1.00
318;DHT22;146;53.448;10.228;2022-09-03T12:27:18;21.90;1.00
318;DHT22;146;53.448;10.228;2022-09-03T12:29:54;21.80;1.00
318;DHT22;146;53.448;10.228;2022-09-03T12:32:24;21.90;1.00
318;DHT22;146;53.448;10.228;2022-09-03T12:34:52;21.80;1.00
318;DHT22;146;53.448;10.228;2022-09-03T12:37:20;21.80;1.00
318;DHT22;146;53.448;10.228;2022-09-03T12:39:52;21.90;1.00
318;DHT22;146;53.448;10.228;2022-09-03T12:42:23;21.90;1.00
318;DHT22;146;53.448;10.228;2022-09-03T12:44:51;21.90;1.00
318;DHT22;146;53.448;10.228;2022-09-03T12:47:19;22.00;1.00
318;DHT22;146;53.448;10.228;2022-09-03T12:49:49;21.90;1.00
318;DHT22;146;53.448;10.228;2022-09-03T12:52:22;21.80;1.00
318;DHT22;146;53.448;10.228;2022-09-03T12:54:55;21.70;1.00
318;DHT22;146;53.448;10.228;2022-09-03T12:57:26;21.70;1.00
318;DHT22;146;53.448;10.228;2022-09-03T12:59:57;21.70;1.00
318;DHT22;146;53.448;10.228;2022-09-03T13:02:28;21.70;1.00
318;DHT22;146;53.448;10.228;2022-09-03T13:04:59;21.70;1.00
318;DHT22;146;53.448;10.228;2022-09-03T13:07:29;21.80;1.00
318;DHT22;146;53.448;10.228;2022-09-03T13:10:02;21.90;1.00
318;DHT22;146;53.448;10.228;2022-09-03T13:12:33;21.90;1.00
318;DHT22;146;53.448;10.228;2022-09-03T13:15:08;22.00;1.00
318;DHT22;146;53.448;10.228;2022-09-03T13:17:52;22.00;1.00
318;DHT22;146;53.448;10.228;2022-09-03T13:20:33;22.00;1.00
318;DHT22;146;53.448;10.228;2022-09-03T13:23:33;22.10;1.00
318;DHT22;146;53.448;10.228;2022-09-03T13:26:08;22.10;1.00
318;DHT22;146;53.448;10.228;2022-09-03T13:28:50;22.10;1.00
318;DHT22;146;53.448;10.228;2022-09-03T13:31:28;22.00;1.00
318;DHT22;146;53.448;10.228;2022-09-03T13:34:00;22.00;1.00
318;DHT22;146;53.448;10.228;2022-09-03T13:36:36;22.10;1.00
318;DHT22;146;53.448;10.228;2022-09-03T13:39:15;22.00;1.00
318;DHT22;146;53.448;10.228;2022-09-03T13:41:47;22.10;1.00
318;DHT22;146;53.448;10.228;2022-09-03T13:44:22;22.10;1.00
318;DHT22;146;53.448;10.228;2022-09-03T13:47:00;22.10;1.00
318;DHT22;146;53.448;10.228;2022-09-03T13:49:36;22.00;1.00
318;DHT22;146;53.448;10.228;2022-09-03T13:52:30;22.00;1.00
318;DHT22;146;53.448;10.228;2022-09-03T13:55:05;22.10;1.00
318;DHT22;146;53.448;10.228;2022-09-03T13:57:38;22.20;1.00
318;DHT22;146;53.448;10.228;2022-09-03T14:00:08;22.20;1.00
318;DHT22;146;53.448;10.228;2022-09-03T14:02:49;22.20;1.00
318;DHT22;146;53.448;10.228;2022-09-03T14:08:18;22.20;1.00
318;DHT22;146;53.448;10.228;2022-09-03T14:10:57;22.10;1.00
318;DHT22;146;53.448;10.228;2022-09-03T14:13:37;22.00;1.00
318;DHT22;146;53.448;10.228;2022-09-03T14:16:09;22.00;1.00
318;DHT22;146;53.448;10.228;2022-09-03T14:18:43;22.00;1.00
318;DHT22;146;53.448;10.228;2022-09-03T14:21:15;22.00;1.00
318;DHT22;146;53.448;10.228;2022-09-03T14:23:48;21.90;1.00
318;DHT22;146;53.448;10.228;2022-09-03T14:26:20;21.90;1.00
318;DHT22;146;53.448;10.228;2022-09-03T14:28:48;21.90;1.00
318;DHT22;146;53.448;10.228;2022-09-03T14:31:31;21.90;1.00
318;DHT22;146;53.448;10.228;2022-09-03T14:34:07;21.90;1.00
318;DHT22;146;53.448;10.228;2022-09-03T14:36:42;21.80;1.00
318;DHT22;146;53.448;10.228;2022-09-03T14:39:31;21.90;1.00
318;DHT22;146;53.448;10.228;2022-09-03T14:45:22;21.90;1.00
318;DHT22;146;53.448;10.228;2022-09-03T14:48:04;21.90;1.00
318;DHT22;146;53.448;10.228;2022-09-03T14:50:47;21.90;1.00
318;DHT22;146;53.448;10.228;2022-09-03T14:53:29;21.90;1.00
318;DHT22;146;53.448;10.228;2022-09-03T14:56:13;22.00;1.00
318;DHT22;146;53.448;10.228;2022-09-03T15:01:37;21.90;1.00
318;DHT22;146;53.448;10.228;2022-09-03T15:04:34;21.90;1.00
318;DHT22;146;53.448;10.228;2022-09-03T15:07:21;22.00;1.00
318;DHT22;146;53.448;10.228;2022-09-03T15:09:56;21.90;1.00
318;DHT22;146;53.448;10.228;2022-09-03T15:12:33;21.90;1.00
318;DHT22;146;53.448;10.228;2022-09-03T15:15:07;21.80;1.00
318;DHT22;146;53.448;10.228;2022-09-03T15:17:46;21.80;1.00
318;DHT22;146;53.448;10.228;2022-09-03T15:20:21;21.80;1.00
318;DHT22;146;53.448;10.228;2022-09-03T15:23:06;21.80;1.00
318;DHT22;146;53.448;10.228;2022-09-03T15:28:33;21.80;1.00
318;DHT22;146;53.448;10.228;2022-09-03T15:31:11;21.70;1.00
318;DHT22;146;53.448;10.228;2022-09-03T15:33:45;21.70;1.00
318;DHT22;146;53.448;10.228;2022-09-03T15:36:19;21.70;1.00
318;DHT22;146;53.448;10.228;2022-09-03T15:38:51;21.70;1.00
318;DHT22;146;53.448;10.228;2022-09-03T15:41:30;21.70;1.00
318;DHT22;146;53.448;10.228;2022-09-03T15:44:07;21.70;1.00
318;DHT22;146;53.448;10.228;2022-09-03T15:46:44;21.70;1.00
318;DHT22;146;53.448;10.228;2022-09-03T15:52:58;21.60;1.00
318;DHT22;146;53.448;10.228;2022-09-03T15:55:32;21.50;1.00
318;DHT22;146;53.448;10.228;2022-09-03T15:58:05;21.50;1.00
318;DHT22;146;53.448;10.228;2022-09-03T16:00:49;21.50;1.00
318;DHT22;146;53.448;10.228;2022-09-03T16:03:22;21.40;1.00
318;DHT22;146;53.448;10.228;2022-09-03T16:06:01;21.50;1.00
318;DHT22;146;53.448;10.228;2022-09-03T16:08:36;21.40;1.00
318;DHT22;146;53.448;10.228;2022-09-03T16:11:08;21.40;1.00
318;DHT22;146;53.448;10.228;2022-09-03T16:14:00;21.30;1.00
318;DHT22;146;53.448;10.228;2022-09-03T16:16:44;21.30;1.00
318;DHT22;146;53.448;10.228;2022-09-03T16:19:16;21.30;1.00
318;DHT22;146;53.448;10.228;2022-09-03T16:21:47;21.30;1.00
318;DHT22;146;53.448;10.228;2022-09-03T16:24:20;21.30;1.00
318;DHT22;146;53.448;10.228;2022-09-03T16:26:51;21.30;1.00
318;DHT22;146;53.448;10.228;2022-09-03T16:29:25;21.30;1.00
318;DHT22;146;53.448;10.228;2022-09-03T16:32:10;21.30;1.00
318;DHT22;146;53.448;10.228;2022-09-03T16:34:46;21.30;1.00
318;DHT22;146;53.448;10.228;2022-09-03T16:37:21;21.20;1.00
318;DHT22;146;53.448;10.228;2022-09-03T16:39:56;21.20;1.00
318;DHT22;146;53.448;10.228;2022-09-03T16:42:32;21.20;1.00
318;DHT22;146;53.448;10.228;2022-09-03T16:45:11;21.10;1.00
318;DHT22;146;53.448;10.228;2022-09-03T16:51:09;21.10;1.00
318;DHT22;146;53.448;10.228;2022-09-03T16:53:51;21.00;1.00
318;DHT22;146;53.448;10.228;2022-09-03T16:56:43;20.90;1.00
318;DHT22;146;53.448;10.228;2022-09-03T16:59:22;21.00;1.00
318;DHT22;146;53.448;10.228;2022-09-03T17:02:01;21.00;1.00
318;DHT22;146;53.448;10.228;2022-09-03T17:04:44;21.00;1.00
318;DHT22;146;53.448;10.228;2022-09-03T17:07:28;21.00;1.00
318;DHT22;146;53.448;10.228;2022-09-03T17:10:05;21.00;1.00
318;DHT22;146;53.448;10.228;2022-09-03T17:12:40;20.90;1.00
318;DHT22;146;53.448;10.228;2022-09-03T17:15:18;20.90;1.00
318;DHT22;146;53.448;10.228;2022-09-03T17:20:51;20.80;1.00
318;DHT22;146;53.448;10.228;2022-09-03T17:23:42;20.80;1.00
318;DHT22;146;53.448;10.228;2022-09-03T17:26:20;20.70;1.00
318;DHT22;146;53.448;10.228;2022-09-03T17:29:01;20.60;1.00
318;DHT22;146;53.448;10.228;2022-09-03T17:31:40;20.50;1.00
318;DHT22;146;53.448;10.228;2022-09-03T17:34:30;20.50;1.00
318;DHT22;146;53.448;10.228;2022-09-03T17:37:10;20.40;1.00
318;DHT22;146;53.448;10.228;2022-09-03T17:39:53;20.40;1.00
318;DHT22;146;53.448;10.228;2022-09-03T17:50:41;20.20;1.00
318;DHT22;146;53.448;10.228;2022-09-03T17:54:50;20.00;1.00
318;DHT22;146;53.448;10.228;2022-09-03T18:00:44;19.50;1.00